Time;durP1;ratioP1;P1;durP2;ratioP2;P2;SDS_P1;SDS_P2;PMS_P1;PMS_P2;Temp;Humidity;BMP_temperature;BMP_pressure;BME280_temperature;BME280_humidity;BME280_pressure;Samples;Min_cycle;Max_cycle;Signal;HPM_P1;HPM_P2
2023/09/20 00:01:41;;;;;;;7.30;2.33;;;;;;;17.06;91.42;98230.56;4394793;32;20157;-80
2023/09/20 00:04:09;;;;;;;6.35;2.47;;;;;;;16.90;92.09;98232.50;4394774;32;20369;-80
2023/09/20 00:06:36;;;;;;;5.80;2.22;;;;;;;16.83;92.45;98231.25;4394570;32;20101;-80
2023/09/20 00:09:04;;;;;;;5.60;2.65;;;;;;;16.88;91.82;98228.31;4381486;32;20113;-80
2023/09/20 00:11:31;;;;;;;6.37;2.42;;;;;;;16.77;92.54;98231.63;4394442;32;20149;-80
2023/09/20 00:13:58;;;;;;;5.32;2.37;;;;;;;16.97;92.01;98231.16;4394847;32;20082;-80
2023/09/20 00:16:25;;;;;;;8.85;2.83;;;;;;;16.99;91.59;98231.88;4381133;32;20416;-80
2023/09/20 00:18:52;;;;;;;6.65;2.72;;;;;;;16.68;93.25;98227.84;4394531;32;20110;-80
2023/09/20 00:21:19;;;;;;;7.65;2.53;;;;;;;16.77;91.73;98236.84;4394425;32;20124;-80
2023/09/20 00:23:46;;;;;;;5.50;2.33;;;;;;;17.21;89.32;98231.31;4394726;32;20603;-80
2023/09/20 00:26:13;;;;;;;5.57;2.25;;;;;;;17.31;88.17;98228.91;4394505;32;20445;-80
2023/09/20 00:28:42;;;;;;;5.90;2.25;;;;;;;17.15;89.11;98218.69;4394795;32;20180;-80
2023/09/20 00:31:09;;;;;;;6.62;2.62;;;;;;;17.39;87.60;98229.25;4381324;32;20150;-80
2023/09/20 00:33:36;;;;;;;6.78;2.40;;;;;;;17.28;87.49;98219.53;4394320;32;20082;-80
2023/09/20 00:36:03;;;;;;;6.28;2.35;;;;;;;17.52;86.23;98224.84;4394508;32;20128;-80
2023/09/20 00:38:30;;;;;;;5.60;2.12;;;;;;;17.31;86.46;98223.69;4394780;32;20129;-80
2023/09/20 00:40:57;;;;;;;6.93;2.30;;;;;;;17.34;85.82;98228.72;4394218;32;20575;-80
2023/09/20 00:43:25;;;;;;;6.28;2.30;;;;;;;17.24;86.49;98225.06;4394491;32;20082;-80
2023/09/20 00:45:52;;;;;;;8.30;2.58;;;;;;;17.00;88.51;98227.50;4380895;32;20547;-80
2023/09/20 00:48:19;;;;;;;5.57;2.30;;;;;;;17.01;88.48;98231.78;4394354;32;20139;-80
2023/09/20 00:50:46;;;;;;;6.28;2.30;;;;;;;17.04;88.45;98234.22;4394506;32;20452;-80
2023/09/20 00:53:14;;;;;;;5.37;2.33;;;;;;;17.16;88.33;98232.56;4380960;32;20505;-80
2023/09/20 00:55:44;;;;;;;6.68;2.67;;;;;;;17.14;87.96;98226.63;4380446;32;20475;-80
2023/09/20 00:58:14;;;;;;;5.75;2.33;;;;;;;17.18;87.99;98220.25;4394506;32;20602;-80
2023/09/20 01:00:43;;;;;;;6.90;2.42;;;;;;;17.16;88.10;98222.12;4380583;32;20412;-80
2023/09/20 01:03:15;;;;;;;6.12;2.17;;;;;;;17.58;86.47;98218.41;4394430;32;20087;-80
2023/09/20 01:05:43;;;;;;;5.75;2.17;;;;;;;17.61;84.92;98215.56;4392911;32;20441;-80
2023/09/20 01:08:10;;;;;;;7.22;2.08;;;;;;;17.70;82.37;98212.38;4394158;32;20134;-80
2023/09/20 01:10:37;;;;;;;5.25;2.28;;;;;;;17.24;85.01;98215.47;4394222;32;20083;-80
2023/09/20 01:13:05;;;;;;;6.75;2.30;;;;;;;17.39;84.21;98210.16;4394235;32;20480;-80
2023/09/20 01:15:34;;;;;;;4.72;2.12;;;;;;;17.05;87.41;98213.25;4380172;32;20153;-80
2023/09/20 01:18:02;;;;;;;6.37;2.05;;;;;;;17.44;84.85;98214.12;4394339;32;20116;-80
2023/09/20 01:20:31;;;;;;;5.97;2.17;;;;;;;17.37;85.38;98206.81;4380771;32;20099;-80
2023/09/20 01:22:59;;;;;;;7.87;2.28;;;;;;;17.00;87.50;98204.06;4393470;32;20079;-80
2023/09/20 01:25:29;;;;;;;6.20;2.17;;;;;;;16.92;88.15;98203.75;4393973;32;20118;-80
2023/09/20 01:27:58;;;;;;;5.57;2.00;;;;;;;17.24;86.60;98204.22;4394116;32;20098;-80
2023/09/20 01:30:27;;;;;;;6.70;2.00;;;;;;;17.33;85.53;98203.56;4393617;32;20144;-80
2023/09/20 01:32:55;;;;;;;6.85;2.10;;;;;;;17.28;85.41;98205.66;4393846;32;20153;-80
2023/09/20 01:35:23;;;;;;;5.22;2.08;;;;;;;17.13;85.43;98202.31;4393811;32;20113;-80
2023/09/20 01:37:51;;;;;;;6.25;1.92;;;;;;;17.55;82.61;98198.59;4380155;32;20125;-80
2023/09/20 01:40:19;;;;;;;4.97;1.80;;;;;;;17.12;85.39;98205.88;4380420;32;20169;-80
2023/09/20 01:42:49;;;;;;;6.65;1.87;;;;;;;17.11;84.58;98211.16;4393379;32;20096;-80
2023/09/20 01:45:18;;;;;;;7.22;2.22;;;;;;;17.02;84.38;98215.25;4393823;32;20166;-80
2023/09/20 01:47:54;;;;;;;4.93;2.12;;;;;;;17.01;84.37;98206.59;4393810;32;20146;-80
2023/09/20 01:50:24;;;;;;;4.18;1.87;;;;;;;16.99;86.29;98205.00;4393436;32;20152;-80
2023/09/20 01:53:00;;;;;;;8.45;1.92;;;;;;;17.25;84.52;98206.72;4393624;32;20467;-80
2023/09/20 01:55:28;;;;;;;7.87;2.40;;;;;;;16.89;87.11;98203.94;4393593;32;20121;-80
2023/09/20 01:57:56;;;;;;;4.62;1.90;;;;;;;16.75;88.92;98189.22;4379819;32;20124;-80
2023/09/20 02:00:31;;;;;;;3.95;1.87;;;;;;;17.35;85.74;98212.97;4380060;32;20150;-80
2023/09/20 02:05:56;;;;;;;6.43;2.15;;;;;;;17.25;86.64;98209.31;4376272;32;20105;-80
2023/09/20 02:08:23;;;;;;;4.45;1.80;;;;;;;17.10;85.59;98204.28;4393527;32;20149;-80
2023/09/20 02:10:50;;;;;;;5.82;1.70;;;;;;;17.43;83.05;98204.59;4393155;32;20151;-80
2023/09/20 02:13:18;;;;;;;4.55;1.90;;;;;;;17.64;81.23;98207.53;4379839;32;20087;-80
2023/09/20 02:15:46;;;;;;;4.40;1.95;;;;;;;17.30;82.09;98202.00;4393201;32;20094;-80
2023/09/20 02:18:14;;;;;;;5.37;2.05;;;;;;;16.85;85.12;98207.69;4381933;32;20168;-80
2023/09/20 02:20:42;;;;;;;6.85;2.03;;;;;;;16.65;87.26;98206.34;4395573;32;20090;-80
2023/09/20 02:23:12;;;;;;;4.72;2.03;;;;;;;16.57;87.39;98204.22;4395406;32;20142;-80
2023/09/20 02:25:41;;;;;;;6.22;2.35;;;;;;;16.55;88.47;98197.44;4382120;32;20122;-80
2023/09/20 02:28:08;;;;;;;7.55;2.10;;;;;;;16.76;88.50;98198.69;4395614;32;20133;-80
2023/09/20 02:30:36;;;;;;;7.87;2.30;;;;;;;16.94;88.32;98200.09;4395491;32;20086;-80
2023/09/20 02:33:05;;;;;;;4.70;2.00;;;;;;;16.85;88.23;98200.69;4395139;32;20343;-80
2023/09/20 02:35:34;;;;;;;5.12;2.08;;;;;;;16.99;87.58;98200.63;4395423;32;20098;-80
2023/09/20 02:38:05;;;;;;;5.93;2.00;;;;;;;16.95;88.08;98196.56;4395702;32;20714;-80
2023/09/20 02:40:35;;;;;;;4.62;1.90;;;;;;;16.60;89.97;98203.22;4382129;32;20094;-80
2023/09/20 02:43:04;;;;;;;4.57;1.90;;;;;;;16.76;89.38;98193.47;4382118;32;20146;-80
2023/09/20 02:45:33;;;;;;;6.35;2.08;;;;;;;16.84;88.06;98195.59;4381845;32;20117;-80
2023/09/20 02:48:06;;;;;;;6.30;1.92;;;;;;;16.88;85.65;98197.88;4395176;32;20494;-80
2023/09/20 02:50:34;;;;;;;6.00;2.70;;;;;;;16.91;84.41;98195.09;4381926;32;20471;-80
2023/09/20 02:53:01;;;;;;;5.10;2.08;;;;;;;17.19;82.57;98196.69;4395127;32;20101;-80
2023/09/20 02:55:31;;;;;;;7.60;2.03;;;;;;;16.91;83.90;98195.09;4395228;32;20117;-80
2023/09/20 02:57:59;;;;;;;4.37;1.80;;;;;;;16.94;84.01;98202.69;4395416;32;20094;-80
2023/09/20 03:00:28;;;;;;;5.40;1.90;;;;;;;16.84;84.53;98203.41;4395070;32;20133;-80
2023/09/20 03:03:04;;;;;;;8.50;2.12;;;;;;;16.51;86.58;98209.00;4395150;32;20448;-80
2023/09/20 03:05:33;;;;;;;6.07;2.00;;;;;;;16.63;85.65;98205.59;4395366;32;20091;-80
2023/09/20 03:08:01;;;;;;;5.65;1.92;;;;;;;16.97;83.89;98210.31;4394927;32;20090;-80
2023/09/20 03:10:29;;;;;;;5.43;2.17;;;;;;;16.92;84.37;98204.59;4381823;32;20086;-80
2023/09/20 03:12:57;;;;;;;5.70;2.25;;;;;;;16.66;85.46;98213.22;4395156;32;20094;-80
2023/09/20 03:15:27;;;;;;;10.13;2.65;;;;;;;16.67;85.56;98215.72;4381435;32;20106;-80
2023/09/20 03:17:57;;;;;;;7.07;2.20;;;;;;;16.41;89.23;98214.81;4369494;32;20110;-79
2023/09/20 03:20:25;;;;;;;4.62;1.92;;;;;;;16.14;92.96;98212.16;4381686;32;20094;-80
2023/09/20 03:22:54;;;;;;;6.28;2.22;;;;;;;16.38;91.57;98220.22;4394479;32;20082;-80
2023/09/20 03:25:22;;;;;;;7.35;2.35;;;;;;;16.47;91.31;98217.00;4395084;32;20157;-80
2023/09/20 03:27:50;;;;;;;4.12;1.92;;;;;;;16.37;91.71;98222.88;4394579;32;20113;-80
2023/09/20 03:30:20;;;;;;;4.60;1.95;;;;;;;16.37;91.53;98221.12;4381017;32;20090;-80
2023/09/20 03:32:50;;;;;;;6.93;2.00;;;;;;;16.43;89.75;98227.72;4395097;32;20441;-80
2023/09/20 03:35:19;;;;;;;5.28;2.37;;;;;;;16.58;87.68;98223.28;4394709;32;20132;-80
2023/09/20 03:37:47;;;;;;;5.32;2.05;;;;;;;16.38;88.59;98222.81;4395164;32;20086;-80
2023/09/20 03:40:19;;;;;;;6.57;1.80;;;;;;;16.43;88.86;98217.31;4395106;32;20086;-80
2023/09/20 03:42:48;;;;;;;9.02;2.22;;;;;;;16.56;87.56;98218.19;4394696;32;20153;-80
2023/09/20 03:45:16;;;;;;;7.12;2.35;;;;;;;16.55;90.55;98221.72;4381428;32;20111;-80
2023/09/20 03:47:45;;;;;;;4.90;1.85;;;;;;;16.34;93.91;98216.13;4395064;32;20117;-80
2023/09/20 03:50:13;;;;;;;7.82;2.40;;;;;;;16.65;95.80;98228.00;4394710;32;20104;-80
2023/09/20 03:52:40;;;;;;;6.43;2.40;;;;;;;16.78;96.31;98220.25;4381389;32;20078;-80
2023/09/20 03:55:07;;;;;;;6.37;2.40;;;;;;;16.76;97.43;98227.34;4381244;32;20169;-80
2023/09/20 03:57:35;;;;;;;8.63;2.55;;;;;;;16.72;98.97;98225.91;4381217;32;20111;-80
2023/09/20 04:00:06;;;;;;;6.85;1.98;;;;;;;16.74;99.07;98227.47;4395095;32;20095;-80
2023/09/20 04:02:37;;;;;;;5.30;2.15;;;;;;;16.89;97.29;98224.78;4394870;32;20100;-80
2023/09/20 04:05:11;;;;;;;6.97;2.50;;;;;;;17.11;94.43;98232.84;4394585;32;20116;-80
2023/09/20 04:07:39;;;;;;;9.38;2.60;;;;;;;17.02;94.07;98231.72;4394865;32;20091;-80
2023/09/20 04:10:07;;;;;;;5.72;2.35;;;;;;;17.35;90.75;98235.63;4381129;32;20727;-81
2023/09/20 04:12:35;;;;;;;7.37;2.22;;;;;;;17.15;91.78;98236.94;4381259;32;20087;-80
2023/09/20 04:15:04;;;;;;;5.95;2.10;;;;;;;17.25;90.23;98238.00;4381259;32;20102;-79
2023/09/20 04:17:32;;;;;;;6.62;2.28;;;;;;;17.31;90.34;98236.75;4380999;32;20476;-80
2023/09/20 04:20:05;;;;;;;8.48;2.37;;;;;;;17.40;88.94;98236.12;4394881;32;20141;-80
2023/09/20 04:22:32;;;;;;;6.90;2.28;;;;;;;17.40;89.94;98238.72;4394517;32;20461;-80
2023/09/20 04:25:00;;;;;;;5.45;2.28;;;;;;;17.42;90.03;98236.03;4394283;32;20102;-80
2023/09/20 04:27:30;;;;;;;6.90;2.72;;;;;;;17.19;92.32;98238.41;4381292;32;20170;-80
2023/09/20 04:29:57;;;;;;;6.85;2.45;;;;;;;17.14;92.67;98239.66;4394782;32;20169;-80
2023/09/20 04:32:24;;;;;;;9.13;2.60;;;;;;;17.11;92.55;98232.00;4394336;32;20455;-80
2023/09/20 04:34:53;;;;;;;6.03;2.58;;;;;;;17.14;93.33;98231.84;4394787;32;20102;-80
2023/09/20 04:37:22;;;;;;;8.38;2.90;;;;;;;17.18;93.21;98233.28;4394578;32;20150;-80
2023/09/20 04:39:49;;;;;;;6.15;2.60;;;;;;;16.95;95.68;98233.03;4393988;32;20446;-80
2023/09/20 04:42:16;;;;;;;6.25;2.50;;;;;;;17.56;91.59;98242.00;4394589;32;20503;-80
2023/09/20 04:44:43;;;;;;;6.70;2.72;;;;;;;17.74;88.74;98232.09;4394565;32;20113;-80
2023/09/20 04:47:10;;;;;;;7.25;2.30;;;;;;;17.64;88.36;98229.22;4380597;32;20497;-80
2023/09/20 04:49:38;;;;;;;7.15;2.83;;;;;;;17.67;87.51;98235.22;4394539;32;20104;-80
2023/09/20 04:52:05;;;;;;;6.22;2.45;;;;;;;17.75;87.78;98238.13;4394478;32;20081;-80
2023/09/20 04:54:33;;;;;;;7.62;2.83;;;;;;;17.66;89.65;98238.75;4394071;32;20098;-79
2023/09/20 04:57:01;;;;;;;6.68;2.53;;;;;;;17.57;89.79;98242.81;4394568;32;20144;-80
2023/09/20 04:59:29;;;;;;;13.07;2.53;;;;;;;17.39;90.26;98244.91;4394172;32;20125;-80
2023/09/20 05:01:56;;;;;;;6.62;2.30;;;;;;;17.43;89.95;98235.91;4394259;32;20160;-80
2023/09/20 05:04:23;;;;;;;9.07;2.62;;;;;;;17.30;90.73;98243.72;4394168;32;20125;-80
2023/09/20 05:06:50;;;;;;;9.20;2.50;;;;;;;17.48;87.68;98249.50;4394206;32;20105;-80
2023/09/20 05:09:17;;;;;;;8.57;2.90;;;;;;;17.52;87.00;98248.34;4394228;32;20078;-80
2023/09/20 05:11:45;;;;;;;16.05;3.28;;;;;;;17.47;89.11;98247.81;4394205;32;20136;-80
2023/09/20 05:14:12;;;;;;;7.62;2.80;;;;;;;17.59;89.38;98252.22;4393878;32;20496;-80
2023/09/20 05:16:39;;;;;;;6.00;2.28;;;;;;;17.72;86.67;98240.97;4394292;32;20107;-80
2023/09/20 05:19:06;;;;;;;5.53;2.20;;;;;;;18.24;83.85;98240.78;4394194;32;20101;-80
2023/09/20 05:21:33;;;;;;;5.53;2.03;;;;;;;18.73;80.33;98239.91;4393528;32;20122;-80
2023/09/20 05:24:00;;;;;;;5.15;1.90;;;;;;;19.53;75.82;98237.41;4393827;32;20108;-80
2023/09/20 05:26:28;;;;;;;4.78;1.90;;;;;;;20.25;72.14;98243.16;4394169;32;20099;-80
2023/09/20 05:28:55;;;;;;;3.92;1.80;;;;;;;20.70;69.07;98238.69;4393821;32;20141;-80
2023/09/20 05:31:25;;;;;;;4.40;1.80;;;;;;;21.16;66.45;98234.94;4380300;32;20161;-80
2023/09/20 05:33:55;;;;;;;7.05;2.05;;;;;;;21.80;63.92;98234.78;4393885;32;20087;-80
2023/09/20 05:36:27;;;;;;;3.55;1.70;;;;;;;21.90;63.41;98235.66;4393760;32;20160;-80
2023/09/20 05:38:54;;;;;;;2.83;1.50;;;;;;;22.56;61.59;98234.34;4394036;32;20086;-80
2023/09/20 05:41:22;;;;;;;3.00;1.50;;;;;;;23.52;58.07;98238.78;4393537;32;20100;-80
2023/09/20 05:43:51;;;;;;;5.10;1.75;;;;;;;24.48;55.08;98232.31;4380000;32;20440;-80
2023/09/20 05:46:18;;;;;;;3.25;1.70;;;;;;;24.82;53.92;98237.78;4393752;32;20409;-78
2023/09/20 05:48:48;;;;;;;4.37;1.87;;;;;;;26.01;51.29;98244.28;4376117;32;20244;-80
2023/09/20 05:51:20;;;;;;;7.07;1.83;;;;;;;27.05;49.15;98252.75;4391711;32;20535;-79
2023/09/20 05:53:48;;;;;;;5.15;2.08;;;;;;;28.06;46.99;98252.28;4394179;32;20137;-79
2023/09/20 05:56:19;;;;;;;5.68;2.00;;;;;;;28.91;44.85;98254.22;4394629;32;20162;-80
2023/09/20 05:58:58;;;;;;;3.45;1.60;;;;;;;29.43;43.71;98251.66;4394729;32;20141;-78
2023/09/20 06:01:30;;;;;;;3.80;1.80;;;;;;;30.15;41.82;98257.28;4381701;32;20078;-80
2023/09/20 06:04:01;;;;;;;4.62;1.80;;;;;;;30.71;40.28;98254.87;4394171;32;20441;-82
2023/09/20 06:06:30;;;;;;;5.03;2.03;;;;;;;31.28;39.59;98263.87;4394609;32;20086;-82
2023/09/20 06:08:57;;;;;;;4.97;1.80;;;;;;;31.89;38.83;98266.81;4394962;32;20091;-83
2023/09/20 06:11:25;;;;;;;3.92;1.80;;;;;;;31.92;38.53;98272.59;4394553;32;20166;-82
2023/09/20 06:13:52;;;;;;;4.95;1.80;;;;;;;31.86;38.71;98264.53;4394405;32;20085;-82
2023/09/20 06:16:19;;;;;;;5.00;1.60;;;;;;;32.31;38.01;98268.50;4394775;32;20166;-83
2023/09/20 06:18:48;;;;;;;5.80;1.95;;;;;;;32.65;38.17;98261.47;4394534;32;20086;-81
2023/09/20 06:21:32;;;;;;;5.93;2.67;;;;;;;32.85;37.69;98269.53;4394341;32;20074;-81
2023/09/20 06:24:01;;;;;;;4.87;1.80;;;;;;;33.15;37.22;98262.81;4393736;32;20102;-82
2023/09/20 06:26:28;;;;;;;5.78;1.90;;;;;;;33.44;36.98;98271.50;4381369;32;20158;-81
2023/09/20 06:28:55;;;;;;;7.15;1.83;;;;;;;33.93;36.69;98260.38;4394842;32;20087;-82
2023/09/20 06:31:22;;;;;;;4.82;1.80;;;;;;;33.78;36.89;98270.44;4394594;32;20104;-81
2023/09/20 06:33:50;;;;;;;8.25;2.20;;;;;;;33.44;37.49;98261.63;4393939;32;20094;-80
2023/09/20 06:36:20;;;;;;;5.95;2.20;;;;;;;33.22;38.18;98262.81;4394754;32;20090;-80
2023/09/20 06:38:48;;;;;;;3.75;1.65;;;;;;;32.12;39.86;98272.72;4394250;32;20196;-81
2023/09/20 06:41:16;;;;;;;5.30;1.75;;;;;;;31.31;41.16;98268.84;4394580;32;20090;-81
2023/09/20 06:43:43;;;;;;;4.43;1.70;;;;;;;30.86;41.97;98278.00;4380211;32;20629;-82
2023/09/20 06:46:10;;;;;;;3.87;1.60;;;;;;;30.66;42.55;98275.12;4394525;32;20150;-81
2023/09/20 06:48:38;;;;;;;5.53;1.70;;;;;;;30.15;44.00;98273.22;4394864;32;20094;-82
2023/09/20 06:51:05;;;;;;;3.95;1.70;;;;;;;29.89;44.96;98275.50;4380799;32;20148;-80
2023/09/20 06:53:32;;;;;;;4.68;1.90;;;;;;;29.98;45.40;98271.72;4379672;32;20445;-81
2023/09/20 06:55:59;;;;;;;4.40;1.67;;;;;;;30.96;43.96;98278.53;4394546;32;20114;-80
2023/09/20 06:58:28;;;;;;;3.83;1.60;;;;;;;31.20;43.44;98278.16;4393982;32;20086;-80
2023/09/20 07:00:56;;;;;;;6.90;1.52;;;;;;;31.31;42.84;98280.31;4394725;32;20488;-82
2023/09/20 07:03:23;;;;;;;4.10;1.60;;;;;;;30.64;43.50;98274.50;4393983;32;20098;-81
2023/09/20 07:05:51;;;;;;;5.47;1.62;;;;;;;30.25;43.51;98280.94;4380830;32;20174;-81
2023/09/20 07:08:21;;;;;;;4.10;1.70;;;;;;;29.72;43.49;98274.00;4394518;32;20559;-81
2023/09/20 07:10:50;;;;;;;4.28;1.30;;;;;;;29.90;42.98;98280.66;4394398;32;20141;-81
2023/09/20 07:13:18;;;;;;;4.60;1.60;;;;;;;29.24;43.42;98278.72;4393458;32;20097;-82
2023/09/20 07:15:46;;;;;;;8.38;1.50;;;;;;;29.11;45.46;98279.31;4394247;32;20114;-81
2023/09/20 07:18:14;;;;;;;4.47;1.62;;;;;;;29.14;44.70;98283.44;4380733;32;20110;-81
2023/09/20 07:20:42;;;;;;;3.22;1.35;;;;;;;29.06;44.49;98290.50;4380459;32;20165;-80
2023/09/20 07:23:12;;;;;;;4.32;1.40;;;;;;;29.09;45.70;98279.50;4366883;32;20097;-81
2023/09/20 07:25:40;;;;;;;4.87;1.50;;;;;;;29.55;43.33;98282.12;4393028;32;20110;-81
2023/09/20 07:28:09;;;;;;;3.25;1.40;;;;;;;29.18;43.85;98284.75;4393786;32;20446;-80
2023/09/20 07:30:44;;;;;;;3.37;1.40;;;;;;;29.07;44.90;98288.66;4379753;32;20440;-79
2023/09/20 07:33:23;;;;;;;6.47;1.52;;;;;;;29.09;44.54;98294.63;4394169;32;20102;-81
2023/09/20 07:35:58;;;;;;;3.03;1.50;;;;;;;29.14;44.32;98294.06;4393873;32;20161;-82
2023/09/20 07:38:28;;;;;;;3.00;1.50;;;;;;;29.16;44.20;98297.41;4381734;32;20144;-82
2023/09/20 07:41:12;;;;;;;3.28;1.50;;;;;;;29.14;44.91;98300.25;4394612;32;20094;-82
2023/09/20 07:43:51;;;;;;;3.97;1.45;;;;;;;29.28;45.12;98295.97;4394918;32;20444;-82
2023/09/20 07:46:20;;;;;;;4.47;1.58;;;;;;;29.42;44.75;98299.66;4382587;32;20185;-82
2023/09/20 07:48:50;;;;;;;3.90;1.40;;;;;;;29.39;44.21;98295.53;4394640;32;20105;-82
2023/09/20 07:51:26;;;;;;;3.42;1.30;;;;;;;29.46;44.82;98303.66;4394862;32;20155;-82
2023/09/20 07:53:59;;;;;;;5.47;1.90;;;;;;;29.52;43.20;98293.13;4381781;32;20515;-82
2023/09/20 07:56:26;;;;;;;4.22;1.50;;;;;;;29.73;43.98;98291.63;4394451;32;20508;-82
2023/09/20 07:58:54;;;;;;;3.90;1.50;;;;;;;30.28;43.26;98296.53;4394604;32;20101;-83
2023/09/20 08:01:24;;;;;;;5.25;1.60;;;;;;;30.02;42.72;98294.31;4394702;32;20373;-82
2023/09/20 08:03:53;;;;;;;3.60;1.48;;;;;;;29.49;41.50;98298.00;4394174;32;20090;-81
2023/09/20 08:06:24;;;;;;;3.42;1.20;;;;;;;29.70;42.50;98295.47;4394733;32;20098;-82
2023/09/20 08:08:51;;;;;;;2.70;1.30;;;;;;;29.60;41.35;98294.91;4394466;32;20475;-83
2023/09/20 08:11:19;;;;;;;5.68;1.50;;;;;;;29.20;41.18;98296.84;4394219;32;20429;-81
2023/09/20 08:13:55;;;;;;;2.75;1.35;;;;;;;28.60;42.38;98294.88;4394408;32;20476;-84
2023/09/20 08:16:24;;;;;;;4.03;1.60;;;;;;;28.39;43.26;98271.59;4394184;32;20113;-84
2023/09/20 08:21:44;;;;;;;3.10;1.30;;;;;;;29.16;42.39;98286.78;4394318;32;20512;-84
2023/09/20 09:00:27;;;;;;;3.20;1.30;;;;;;;29.24;40.70;98273.41;4394315;32;20160;-83
2023/09/20 09:02:59;;;;;;;5.00;1.58;;;;;;;29.08;40.97;98269.88;4394194;32;20144;-84
2023/09/20 09:05:28;;;;;;;3.17;1.15;;;;;;;29.66;39.46;98272.88;4393799;32;20434;-84
2023/09/20 09:07:58;;;;;;;2.65;1.20;;;;;;;29.27;39.92;98263.25;4394150;32;20161;-83
2023/09/20 09:10:26;;;;;;;3.62;1.20;;;;;;;28.92;40.32;98266.50;4394089;32;20110;-84
2023/09/20 09:12:53;;;;;;;2.58;1.37;;;;;;;29.22;39.68;98272.75;4380188;32;20090;-83
2023/09/20 09:15:21;;;;;;;3.40;1.23;;;;;;;28.85;40.49;98271.69;4393836;32;20106;-84
2023/09/20 09:17:48;;;;;;;4.15;1.20;;;;;;;29.10;39.70;98273.19;4394036;32;20132;-83
2023/09/20 09:20:19;;;;;;;4.32;1.30;;;;;;;29.23;39.70;98269.91;4393636;32;20157;-83
2023/09/20 09:22:47;;;;;;;2.05;1.00;;;;;;;29.04;39.71;98267.75;4393832;32;20408;-82
2023/09/20 09:25:19;;;;;;;5.18;1.52;;;;;;;28.96;39.00;98268.63;4394216;32;20101;-82
2023/09/20 09:27:46;;;;;;;4.25;1.40;;;;;;;28.85;39.93;98262.87;4370376;32;20113;-81
2023/09/20 09:30:16;;;;;;;2.25;1.20;;;;;;;29.06;40.70;98257.78;4396947;32;20073;-81
2023/09/20 09:32:46;;;;;;;4.93;1.35;;;;;;;29.41;40.77;98266.13;4396563;32;20086;-81
2023/09/20 09:35:21;;;;;;;3.10;1.30;;;;;;;29.66;37.21;98259.59;4396336;32;20083;-81
2023/09/20 09:38:06;;;;;;;1.90;1.02;;;;;;;29.52;38.30;98266.56;4397005;32;20140;-82
2023/09/20 09:40:50;;;;;;;5.15;1.40;;;;;;;29.77;38.11;98263.63;4396884;32;20098;-81
2023/09/20 09:43:17;;;;;;;2.20;1.10;;;;;;;29.70;39.28;98257.41;4370136;32;20149;-79
2023/09/20 09:45:48;;;;;;;1.65;1.00;;;;;;;29.74;37.54;98256.84;4383333;32;20075;-84
2023/09/20 09:48:16;;;;;;;3.95;1.17;;;;;;;29.95;36.33;98251.66;4384020;32;20106;-84
2023/09/20 09:50:46;;;;;;;4.03;1.20;;;;;;;29.80;36.86;98250.00;4384145;32;20106;-84
2023/09/20 09:53:20;;;;;;;2.40;1.20;;;;;;;30.01;37.82;98246.63;4384107;32;20172;-87
2023/09/20 09:55:49;;;;;;;2.97;1.25;;;;;;;30.29;37.23;98236.12;4396221;32;20107;-84
2023/09/20 09:58:17;;;;;;;2.45;1.30;;;;;;;30.26;38.03;98248.00;4396567;32;20118;-86
2023/09/20 10:00:48;;;;;;;3.30;1.48;;;;;;;30.55;36.90;98252.44;4395787;32;20113;-83
2023/09/20 10:03:29;;;;;;;3.67;1.40;;;;;;;29.87;39.57;98250.91;4381585;32;20474;-82
2023/09/20 10:06:07;;;;;;;4.12;1.30;;;;;;;30.58;38.34;98244.06;4395516;32;20083;-82
2023/09/20 10:08:39;;;;;;;4.32;1.30;;;;;;;30.00;39.85;98242.31;4395403;32;20098;-82
2023/09/20 10:11:08;;;;;;;11.43;1.70;;;;;;;30.09;39.68;98242.03;4395508;32;20114;-82
2023/09/20 10:13:38;;;;;;;4.28;1.58;;;;;;;30.19;39.52;98234.59;4381901;32;20164;-82
2023/09/20 10:16:10;;;;;;;3.78;1.23;;;;;;;30.24;39.13;98237.53;4395137;32;20154;-82
2023/09/20 10:18:54;;;;;;;4.35;1.58;;;;;;;30.32;38.00;98233.13;4395585;32;20429;-80
2023/09/20 10:21:30;;;;;;;2.12;1.27;;;;;;;29.92;39.20;98233.41;4395105;32;20156;-82
2023/09/20 10:24:00;;;;;;;4.57;1.70;;;;;;;29.74;39.27;98230.28;4395093;32;20100;-81
2023/09/20 10:26:28;;;;;;;3.47;1.40;;;;;;;30.06;38.67;98233.56;4395490;32;20078;-82
2023/09/20 10:29:23;;;;;;;3.15;1.40;;;;;;;29.82;38.86;98227.53;4395435;32;20114;-82
2023/09/20 10:31:55;;;;;;;3.42;1.30;;;;;;;30.06;37.92;98225.59;4395281;32;20456;-82
2023/09/20 10:34:23;;;;;;;2.22;1.30;;;;;;;30.10;39.39;98229.56;4381874;32;20094;-82
2023/09/20 10:36:57;;;;;;;3.75;1.50;;;;;;;30.26;38.67;98221.38;4395065;32;20078;-82
2023/09/20 10:39:24;;;;;;;4.03;1.60;;;;;;;30.52;38.58;98219.03;4395305;32;20102;-83
2023/09/20 10:41:52;;;;;;;3.60;1.40;;;;;;;30.74;38.55;98222.56;4395271;32;20102;-83
2023/09/20 10:44:38;;;;;;;5.43;1.67;;;;;;;31.11;37.81;98225.97;4394851;32;20113;-82
2023/09/20 10:47:13;;;;;;;3.28;1.30;;;;;;;30.81;36.41;98222.63;4395043;32;20078;-82
2023/09/20 10:49:48;;;;;;;2.80;1.30;;;;;;;29.84;37.24;98216.69;4395387;32;20150;-82
2023/09/20 10:52:33;;;;;;;2.50;1.17;;;;;;;29.97;37.68;98206.22;4395015;32;20102;-82
2023/09/20 10:55:24;;;;;;;2.90;1.33;;;;;;;30.07;38.69;98217.44;4395019;32;20108;-81
2023/09/20 10:57:52;;;;;;;2.03;1.30;;;;;;;29.89;38.05;98219.66;4394933;32;20074;-82
2023/09/20 11:00:25;;;;;;;3.20;1.40;;;;;;;30.27;37.62;98216.87;4381722;32;20403;-82
2023/09/20 11:02:52;;;;;;;8.02;1.90;;;;;;;30.49;37.55;98211.41;4395197;32;20114;-82
2023/09/20 11:05:21;;;;;;;2.78;1.20;;;;;;;30.68;38.03;98209.19;4394702;32;20468;-83
2023/09/20 11:07:50;;;;;;;3.08;1.30;;;;;;;30.51;35.42;98200.56;4395325;32;20438;-80
2023/09/20 11:10:19;;;;;;;2.53;1.20;;;;;;;30.29;37.48;98206.84;4395167;32;20110;-81
2023/09/20 11:12:46;;;;;;;3.65;1.27;;;;;;;30.12;37.44;98199.09;4394847;32;20468;-82
2023/09/20 11:15:13;;;;;;;4.95;1.67;;;;;;;29.94;37.69;98201.28;4395019;32;20108;-81
2023/09/20 11:17:40;;;;;;;4.37;1.40;;;;;;;29.98;37.88;98201.72;4395341;32;20094;-81
2023/09/20 11:20:11;;;;;;;3.35;1.33;;;;;;;30.25;37.72;98195.78;4381178;32;20106;-83
2023/09/20 11:22:38;;;;;;;4.75;1.40;;;;;;;30.39;36.97;98205.56;4394694;32;20098;-79
2023/09/20 11:25:06;;;;;;;4.00;1.30;;;;;;;30.23;36.72;98193.31;4394303;32;20148;-79
2023/09/20 11:27:38;;;;;;;5.45;2.40;;;;;;;30.00;35.92;98184.59;4394964;32;20161;-80
2023/09/20 11:30:07;;;;;;;2.67;1.12;;;;;;;29.79;37.26;98180.03;4394948;32;20129;-79
2023/09/20 11:32:37;;;;;;;2.50;1.10;;;;;;;29.73;35.29;98179.94;4394535;32;20103;-81
2023/09/20 11:35:06;;;;;;;7.72;1.20;;;;;;;29.02;36.71;98179.44;4396505;32;20107;-83
2023/09/20 11:37:38;;;;;;;5.05;1.40;;;;;;;29.48;37.14;98182.88;4381141;32;20157;-81
2023/09/20 11:40:06;;;;;;;2.35;1.20;;;;;;;29.58;37.27;98177.28;4394538;32;20446;-82
2023/09/20 11:42:34;;;;;;;2.72;1.10;;;;;;;29.53;37.17;98177.00;4381292;32;20124;-81
2023/09/20 11:45:08;;;;;;;3.87;1.35;;;;;;;29.84;36.39;98167.00;4394780;32;20161;-80
2023/09/20 11:47:55;;;;;;;3.53;1.70;;;;;;;29.62;36.20;98171.41;4383274;32;20074;-83
2023/09/20 11:50:26;;;;;;;3.17;1.35;;;;;;;28.95;37.85;98165.25;4393966;32;20099;-83
2023/09/20 11:52:54;;;;;;;2.90;1.23;;;;;;;28.91;37.86;98163.94;4394868;32;20445;-82
2023/09/20 11:55:22;;;;;;;3.92;1.40;;;;;;;29.34;36.98;98157.03;4394482;32;20090;-79
2023/09/20 11:57:52;;;;;;;2.70;1.27;;;;;;;29.36;36.79;98147.09;4394742;32;20110;-83
2023/09/20 12:00:24;;;;;;;3.75;1.20;;;;;;;29.11;37.23;98151.78;4396100;32;20109;-83
2023/09/20 12:02:53;;;;;;;4.43;1.20;;;;;;;29.24;36.50;98140.53;4396503;32;20087;-83
2023/09/20 12:05:21;;;;;;;2.62;1.17;;;;;;;29.04;36.85;98140.25;4382195;32;20433;-82
2023/09/20 12:07:56;;;;;;;1.48;1.08;;;;;;;29.35;36.68;98137.47;4394962;32;20070;-82
2023/09/20 12:10:29;;;;;;;2.53;1.20;;;;;;;29.04;36.92;98134.94;4410041;32;20093;-84
2023/09/20 12:12:56;;;;;;;3.22;1.12;;;;;;;29.36;37.15;98125.81;4409895;32;20146;-84
2023/09/20 12:15:24;;;;;;;6.10;1.50;;;;;;;29.60;35.69;98125.56;4395680;32;20108;-84
2023/09/20 12:17:55;;;;;;;5.87;1.48;;;;;;;29.48;36.60;98131.53;4409847;32;20109;-84
2023/09/20 12:20:24;;;;;;;3.05;1.20;;;;;;;29.61;36.05;98129.06;4409915;32;20095;-84
2023/09/20 12:22:53;;;;;;;4.62;1.30;;;;;;;29.97;36.29;98126.44;4409106;32;20098;-84
2023/09/20 12:25:20;;;;;;;2.53;1.10;;;;;;;29.97;36.38;98123.75;4409675;32;20097;-83
2023/09/20 12:27:48;;;;;;;2.50;1.20;;;;;;;29.89;35.06;98114.09;4409861;32;20109;-83